createdAt,value
2023-03-14T00:08:51.914Z,99484
2023-03-14T00:18:52.549Z,99477
2023-03-14T00:28:53.136Z,99448
2023-03-14T00:38:53.587Z,99432
2023-03-14T00:48:54.320Z,99428
2023-03-14T00:58:54.904Z,99408
2023-03-14T01:08:55.489Z,99413
2023-03-14T01:18:56.080Z,99391
2023-03-14T01:28:56.369Z,99376
2023-03-14T01:48:57.373Z,99320
2023-03-14T01:58:58.113Z,99317
2023-03-14T02:08:58.697Z,99304
2023-03-14T02:18:59.007Z,99266
2023-03-14T02:28:59.544Z,99269
2023-03-14T02:39:00.036Z,99250
2023-03-14T02:49:00.593Z,99235
2023-03-14T02:59:01.124Z,99231
2023-03-14T03:09:01.646Z,99220
2023-03-14T03:19:02.177Z,99212
2023-03-14T03:29:02.753Z,99215
2023-03-14T03:39:03.263Z,99209
2023-03-14T03:49:03.805Z,99201
2023-03-14T03:59:04.329Z,99184
2023-03-14T04:09:04.807Z,99175
2023-03-14T04:19:05.389Z,99169
2023-03-14T04:29:05.885Z,99168
2023-03-14T04:39:06.352Z,99150
2023-03-14T04:49:06.842Z,99161
2023-03-14T04:59:07.254Z,99173
2023-03-14T05:19:07.962Z,99154
2023-03-14T05:29:08.238Z,99148
2023-03-14T05:39:08.572Z,99134
2023-03-14T05:49:08.902Z,99124
2023-03-14T05:59:09.235Z,99121
2023-03-14T06:09:09.602Z,99117
2023-03-14T06:19:09.991Z,99108
2023-03-14T06:29:10.422Z,99112
2023-03-14T06:39:10.817Z,99121
2023-03-14T06:49:11.289Z,99124
2023-03-14T06:59:11.777Z,99132
2023-03-14T07:09:12.294Z,99116
2023-03-14T07:19:12.843Z,99112
2023-03-14T07:29:13.498Z,99120
2023-03-14T07:39:14.145Z,99113
2023-03-14T07:49:14.848Z,99091
2023-03-14T07:59:15.522Z,99088
2023-03-14T08:09:16.391Z,99067
2023-03-14T08:19:17.273Z,99044
2023-03-14T08:29:17.935Z,99050
2023-03-14T08:39:19.094Z,99039
2023-03-14T08:49:19.896Z,99038
2023-03-14T08:59:21.220Z,98995
2023-03-14T09:19:23.267Z,98966
2023-03-14T09:29:24.551Z,98940
2023-03-14T09:39:25.937Z,98942
2023-03-14T09:49:27.116Z,98943
2023-03-14T09:59:28.230Z,98918
2023-03-14T10:09:29.382Z,98883
2023-03-14T10:19:30.701Z,98873
2023-03-14T10:29:31.929Z,98867
2023-03-14T10:39:34.513Z,98841
2023-03-14T10:49:34.583Z,98822
2023-03-14T10:59:35.754Z,98806
2023-03-14T11:09:37.114Z,98783
2023-03-14T11:19:38.431Z,98775
2023-03-14T11:29:39.781Z,98747
2023-03-14T11:39:41.112Z,98738
2023-03-14T11:49:42.857Z,98738
2023-03-14T11:59:43.891Z,98714
2023-03-14T12:09:45.457Z,98693
2023-03-14T12:19:46.976Z,98675
2023-03-14T12:29:48.468Z,98663
2023-03-14T12:39:49.701Z,98648
2023-03-14T12:49:51.196Z,98634
2023-03-14T12:59:52.683Z,98617
2023-03-14T13:09:54.056Z,98612
2023-03-14T13:19:55.454Z,98611
2023-03-14T13:29:56.800Z,98627
2023-03-14T13:39:58.500Z,98639
2023-03-14T13:49:59.595Z,98637
2023-03-14T14:00:00.629Z,98644
2023-03-14T14:10:01.953Z,98649
2023-03-14T14:20:03.280Z,98642
2023-03-14T14:30:04.711Z,98633
2023-03-14T14:40:06.068Z,98631
2023-03-14T14:50:07.361Z,98632
2023-03-14T15:00:08.626Z,98627
2023-03-14T15:10:10.116Z,98632
2023-03-14T15:20:11.270Z,98634
2023-03-14T15:30:12.540Z,98643
2023-03-14T15:40:14.022Z,98667
2023-03-14T15:50:15.036Z,98704
2023-03-14T16:00:16.399Z,98759
2023-03-14T16:10:17.721Z,98767
2023-03-14T16:20:19.013Z,98768
2023-03-14T16:30:19.793Z,98765
2023-03-14T16:40:21.134Z,98758
2023-03-14T16:50:22.275Z,98779
2023-03-14T17:00:23.106Z,98800
2023-03-14T17:10:24.168Z,98826
2023-03-14T17:20:25.331Z,98831
2023-03-14T17:40:27.418Z,98860
2023-03-14T17:50:28.596Z,98859
2023-03-14T18:00:29.567Z,98876
2023-03-14T18:10:30.801Z,98861
2023-03-14T18:20:31.954Z,98865
2023-03-14T18:30:33.037Z,98865
2023-03-14T18:40:33.733Z,98870
2023-03-14T18:50:34.837Z,98862
2023-03-14T19:00:36.126Z,98848
2023-03-14T19:10:36.767Z,98835
2023-03-14T19:30:38.946Z,98847
2023-03-14T19:40:39.898Z,98849
2023-03-14T19:50:41.082Z,98832
2023-03-14T20:00:41.965Z,98828
2023-03-14T20:10:43.145Z,98835
2023-03-14T20:30:44.717Z,98868
2023-03-14T20:40:45.536Z,98874
2023-03-14T20:50:46.250Z,98890
2023-03-14T21:00:47.548Z,98904
2023-03-14T21:10:48.187Z,98918
2023-03-14T21:20:49.241Z,98925
2023-03-14T21:30:50.171Z,98930
2023-03-14T21:40:50.988Z,98940
2023-03-14T21:50:51.932Z,98942
2023-03-14T22:00:52.856Z,98951
2023-03-14T22:10:53.775Z,98961
2023-03-14T22:20:54.677Z,98977
2023-03-14T22:30:55.609Z,98979
2023-03-14T22:40:56.512Z,98990
2023-03-14T22:50:37.901Z,98993
2023-03-14T23:00:58.353Z,98988
2023-03-14T23:10:59.132Z,98988
2023-03-14T23:21:00.000Z,99001
2023-03-14T23:31:00.933Z,98994
2023-03-14T23:41:01.802Z,98997
2023-03-14T23:51:02.543Z,98990
